createdAt,value
2019-02-19T00:00:52.986Z,2.20
2019-02-19T00:03:20.921Z,2.10
2019-02-19T00:05:49.045Z,1.90
2019-02-19T00:08:17.165Z,1.70
2019-02-19T00:10:45.348Z,1.80
2019-02-19T00:13:15.047Z,1.70
2019-02-19T00:15:43.129Z,1.60
2019-02-19T00:18:11.049Z,1.60
2019-02-19T00:20:39.238Z,1.70
2019-02-19T00:23:07.165Z,1.70
2019-02-19T00:25:35.392Z,1.60
2019-02-19T00:28:03.311Z,1.60
2019-02-19T00:30:31.237Z,1.60
2019-02-19T00:32:59.274Z,1.50
2019-02-19T00:35:27.166Z,1.60
2019-02-19T00:37:55.132Z,1.50
2019-02-19T00:40:23.209Z,1.60
2019-02-19T00:42:51.272Z,1.60
2019-02-19T00:45:19.451Z,1.50
2019-02-19T00:47:47.596Z,1.60
2019-02-19T00:50:15.584Z,1.70
2019-02-19T00:52:43.898Z,1.60
2019-02-19T00:55:11.920Z,1.50
2019-02-19T00:57:39.913Z,1.50
2019-02-19T01:00:08.810Z,1.40
2019-02-19T01:02:36.837Z,1.30
2019-02-19T01:05:05.429Z,1.20
2019-02-19T01:07:33.389Z,1.00
2019-02-19T01:10:01.951Z,0.90
2019-02-19T01:12:29.922Z,0.80
2019-02-19T01:14:58.014Z,0.70
2019-02-19T01:17:26.188Z,0.60
2019-02-19T01:19:55.259Z,0.70
2019-02-19T01:22:23.169Z,0.60
2019-02-19T01:24:51.172Z,0.50
2019-02-19T01:27:19.133Z,0.50
2019-02-19T01:29:47.183Z,0.40
2019-02-19T01:32:15.230Z,0.30
2019-02-19T01:34:44.763Z,0.20
2019-02-19T01:37:12.721Z,0.20
2019-02-19T01:39:41.084Z,0.10
2019-02-19T01:42:09.760Z,0.00
2019-02-19T01:44:39.632Z,0.00
2019-02-19T01:47:07.792Z,0.00
2019-02-19T01:49:35.852Z,-0.10
2019-02-19T01:52:03.949Z,-0.10
2019-02-19T01:54:32.098Z,-0.20
2019-02-19T01:57:00.207Z,-0.20
2019-02-19T01:59:28.355Z,-0.30
2019-02-19T02:01:57.841Z,-0.30
2019-02-19T02:04:25.829Z,-0.30
2019-02-19T02:06:53.812Z,-0.30
2019-02-19T02:09:21.897Z,-0.40
2019-02-19T02:11:50.065Z,-0.40
2019-02-19T02:14:18.117Z,-0.20
2019-02-19T02:16:46.136Z,0.00
2019-02-19T02:19:15.357Z,-0.10
2019-02-19T02:21:43.284Z,-0.10
2019-02-19T02:24:11.503Z,-0.20
2019-02-19T02:26:39.523Z,-0.20
2019-02-19T02:29:07.744Z,-0.20
2019-02-19T02:31:35.974Z,-0.40
2019-02-19T02:34:03.866Z,-0.40
2019-02-19T02:36:31.782Z,-0.40
2019-02-19T02:39:03.404Z,-0.40
2019-02-19T02:41:31.413Z,-0.50
2019-02-19T02:43:59.591Z,-0.50
2019-02-19T02:46:27.476Z,-0.50
2019-02-19T02:48:55.560Z,-0.50
2019-02-19T02:51:23.530Z,-0.50
2019-02-19T02:53:52.712Z,-0.60
2019-02-19T02:56:20.584Z,-0.70
2019-02-19T02:58:49.288Z,-0.70
2019-02-19T03:01:17.250Z,-0.80
2019-02-19T03:03:45.233Z,-0.80
2019-02-19T03:06:21.831Z,-0.90
2019-02-19T03:08:49.772Z,-0.90
2019-02-19T03:11:17.999Z,-0.90
2019-02-19T03:13:45.988Z,-0.90
2019-02-19T03:16:14.052Z,-1.00
2019-02-19T03:18:41.981Z,-1.00
2019-02-19T03:21:09.888Z,-1.00
2019-02-19T03:23:37.988Z,-1.00
2019-02-19T03:26:05.857Z,-1.00
2019-02-19T03:28:33.689Z,-1.00
2019-02-19T03:31:01.567Z,-1.00
2019-02-19T03:33:29.429Z,-1.00
2019-02-19T03:35:57.375Z,-1.10
2019-02-19T03:38:25.274Z,-1.10
2019-02-19T03:40:53.199Z,-1.20
2019-02-19T03:43:21.127Z,-1.20
2019-02-19T03:45:48.993Z,-1.20
2019-02-19T03:48:17.754Z,-1.30
2019-02-19T03:50:45.712Z,-1.30
2019-02-19T03:53:13.696Z,-1.20
2019-02-19T03:55:43.672Z,-1.20
2019-02-19T03:58:11.641Z,-1.10
2019-02-19T04:00:39.428Z,-1.20
2019-02-19T04:03:07.524Z,-1.20
2019-02-19T04:05:35.592Z,-1.20
2019-02-19T04:08:03.503Z,-1.30
2019-02-19T04:10:31.358Z,-1.40
2019-02-19T04:12:59.381Z,-1.40
2019-02-19T04:15:27.303Z,-1.50
2019-02-19T04:17:55.259Z,-1.40
2019-02-19T04:20:23.277Z,-1.40
2019-02-19T04:22:51.323Z,-1.40
2019-02-19T04:25:19.143Z,-1.50
2019-02-19T04:27:48.756Z,-1.50
2019-02-19T04:30:17.384Z,-1.50
2019-02-19T04:32:45.649Z,-1.50
2019-02-19T04:35:14.822Z,-1.40
2019-02-19T04:37:42.729Z,-1.40
2019-02-19T04:40:10.781Z,-1.40
2019-02-19T04:42:38.840Z,-1.40
2019-02-19T04:45:07.044Z,-1.50
2019-02-19T04:47:35.249Z,-1.50
2019-02-19T04:50:04.288Z,-1.50
2019-02-19T04:52:32.643Z,-1.40
2019-02-19T04:55:01.624Z,-1.40
2019-02-19T04:57:29.730Z,-1.40
2019-02-19T04:59:57.999Z,-1.30
2019-02-19T05:02:26.297Z,-1.40
2019-02-19T05:04:58.174Z,-1.50
2019-02-19T05:07:28.691Z,-1.50
2019-02-19T05:10:03.672Z,-1.60
2019-02-19T05:12:45.300Z,-1.60
2019-02-19T05:15:10.539Z,-1.60
2019-02-19T05:17:53.145Z,-1.60
2019-02-19T05:20:32.368Z,-1.60
2019-02-19T05:23:30.609Z,-1.60
2019-02-19T05:26:15.183Z,-1.60
2019-02-19T05:28:54.666Z,-1.50
2019-02-19T05:31:38.876Z,-1.60
2019-02-19T05:34:06.766Z,-1.60
2019-02-19T05:36:35.621Z,-1.70
2019-02-19T05:39:07.760Z,-1.40
2019-02-19T05:41:37.053Z,-1.60
2019-02-19T05:44:05.257Z,-1.50
2019-02-19T05:46:35.433Z,-1.60
2019-02-19T05:49:03.514Z,-1.60
2019-02-19T05:51:31.700Z,-1.60
2019-02-19T05:53:59.650Z,-1.60
2019-02-19T05:56:28.198Z,-1.60
2019-02-19T05:58:59.263Z,-1.70
2019-02-19T06:01:30.863Z,-1.60
2019-02-19T06:03:58.875Z,-1.70
2019-02-19T06:06:26.894Z,-1.60
2019-02-19T06:08:55.020Z,-1.60
2019-02-19T06:11:22.630Z,-1.60
2019-02-19T06:13:50.228Z,-1.50
2019-02-19T06:16:17.826Z,-1.60
2019-02-19T06:18:45.453Z,-1.40
2019-02-19T06:21:13.031Z,-1.30
2019-02-19T06:23:40.724Z,-1.30
2019-02-19T06:26:08.410Z,-1.30
2019-02-19T06:28:35.892Z,-1.20
2019-02-19T06:31:03.592Z,-1.10
2019-02-19T06:33:31.253Z,-1.10
2019-02-19T06:35:58.737Z,-1.00
2019-02-19T06:38:26.442Z,-1.00
2019-02-19T06:40:54.012Z,-0.90
2019-02-19T06:43:21.621Z,-0.80
2019-02-19T06:45:49.580Z,-0.70
2019-02-19T06:48:17.401Z,-0.60
2019-02-19T06:50:45.018Z,-0.50
2019-02-19T06:53:12.639Z,-0.40
2019-02-19T06:55:40.337Z,-0.40
2019-02-19T06:58:07.932Z,-0.30
2019-02-19T07:00:36.178Z,-0.20
2019-02-19T07:03:17.840Z,-0.10
2019-02-19T07:05:45.498Z,0.00
2019-02-19T07:08:13.186Z,0.10
2019-02-19T07:10:40.732Z,0.20
2019-02-19T07:13:08.582Z,0.40
2019-02-19T07:15:36.183Z,0.50
2019-02-19T07:18:03.936Z,0.60
2019-02-19T07:20:31.988Z,0.70
2019-02-19T07:22:59.594Z,0.80
2019-02-19T07:25:28.392Z,0.90
2019-02-19T07:27:56.157Z,1.00
2019-02-19T07:30:23.850Z,1.00
2019-02-19T07:32:51.557Z,1.10
2019-02-19T07:35:20.808Z,1.20
2019-02-19T07:38:08.448Z,1.40
2019-02-19T07:40:41.146Z,1.40
2019-02-19T07:43:24.424Z,1.40
2019-02-19T07:45:56.256Z,1.70
2019-02-19T07:48:29.418Z,1.80
2019-02-19T07:50:59.040Z,1.90
2019-02-19T07:53:30.417Z,2.10
2019-02-19T07:56:00.578Z,2.10
2019-02-19T07:58:31.308Z,2.30
2019-02-19T08:00:59.297Z,2.40
2019-02-19T08:03:27.301Z,2.60
2019-02-19T08:05:55.259Z,2.70
2019-02-19T08:08:23.147Z,2.90
2019-02-19T08:10:51.084Z,2.80
2019-02-19T08:13:18.942Z,3.10
2019-02-19T08:15:46.874Z,3.20
2019-02-19T08:18:14.638Z,3.30
2019-02-19T08:20:42.480Z,3.40
2019-02-19T08:23:10.254Z,3.40
2019-02-19T08:25:38.011Z,3.50
2019-02-19T08:28:05.860Z,3.60
2019-02-19T08:30:33.562Z,3.80
2019-02-19T08:33:01.236Z,3.90
2019-02-19T08:35:29.044Z,4.00
2019-02-19T08:37:57.364Z,4.10
2019-02-19T08:40:25.094Z,4.30
2019-02-19T08:42:53.303Z,4.50
2019-02-19T08:45:21.327Z,4.70
2019-02-19T08:47:49.698Z,4.80
2019-02-19T08:50:18.568Z,4.90
2019-02-19T08:52:49.778Z,5.10
2019-02-19T08:55:18.355Z,5.30
2019-02-19T08:57:46.417Z,5.40
2019-02-19T09:00:14.672Z,5.50
2019-02-19T09:02:42.698Z,5.70
2019-02-19T09:05:11.072Z,5.70
2019-02-19T09:07:40.498Z,5.80
2019-02-19T09:10:11.596Z,5.90
2019-02-19T09:12:39.986Z,6.30
2019-02-19T09:15:08.736Z,6.50
2019-02-19T09:17:36.460Z,6.60
2019-02-19T09:20:04.777Z,6.70
2019-02-19T09:22:32.356Z,6.80
2019-02-19T09:25:00.058Z,6.90
2019-02-19T09:27:29.690Z,7.00
2019-02-19T09:29:57.308Z,7.20
2019-02-19T09:32:25.253Z,7.30
2019-02-19T09:34:53.279Z,7.50
2019-02-19T09:37:21.426Z,7.50
2019-02-19T09:39:49.069Z,7.60
2019-02-19T09:42:16.767Z,7.60
2019-02-19T09:44:44.370Z,7.70
2019-02-19T09:47:15.179Z,7.80
2019-02-19T09:49:42.828Z,7.90
2019-02-19T09:52:10.595Z,8.10
2019-02-19T09:54:39.665Z,8.20
2019-02-19T09:57:07.608Z,8.30
2019-02-19T09:59:35.457Z,8.30
2019-02-19T10:02:05.470Z,8.60
2019-02-19T10:04:33.319Z,8.70
2019-02-19T10:07:01.334Z,8.70
2019-02-19T10:09:29.336Z,8.80
2019-02-19T10:11:57.446Z,8.90
2019-02-19T10:14:25.476Z,8.90
2019-02-19T10:16:56.785Z,8.90
2019-02-19T10:19:26.031Z,8.90
2019-02-19T10:22:09.249Z,9.10
2019-02-19T10:25:00.558Z,9.20
2019-02-19T10:27:50.890Z,9.10
2019-02-19T10:30:22.592Z,9.50
2019-02-19T10:32:50.668Z,9.70
2019-02-19T10:35:19.038Z,9.70
2019-02-19T10:37:52.972Z,9.70
2019-02-19T10:40:21.209Z,9.70
2019-02-19T10:42:49.297Z,10.00
2019-02-19T10:45:17.985Z,10.20
2019-02-19T10:47:46.469Z,9.90
2019-02-19T10:50:14.735Z,9.90
2019-02-19T10:52:43.023Z,10.00
2019-02-19T10:55:11.653Z,10.00
2019-02-19T10:57:39.348Z,10.10
2019-02-19T11:00:10.556Z,10.00
2019-02-19T11:02:38.231Z,10.30
2019-02-19T11:05:05.942Z,10.40
2019-02-19T11:07:33.707Z,10.50
2019-02-19T11:10:02.034Z,10.60
2019-02-19T11:12:29.724Z,10.80
2019-02-19T11:14:57.320Z,10.90
2019-02-19T11:17:25.181Z,11.00
2019-02-19T11:19:52.896Z,11.10
2019-02-19T11:22:20.656Z,11.20
2019-02-19T11:24:48.391Z,11.40
2019-02-19T11:27:16.745Z,11.40
2019-02-19T11:29:44.549Z,11.60
2019-02-19T11:32:12.273Z,11.80
2019-02-19T11:34:40.197Z,11.90
2019-02-19T11:37:08.244Z,12.00
2019-02-19T11:39:36.088Z,12.00
2019-02-19T11:42:04.868Z,12.00
2019-02-19T11:44:32.544Z,11.90
2019-02-19T11:47:00.128Z,11.80
2019-02-19T11:49:27.769Z,11.90
2019-02-19T11:51:55.575Z,12.00
2019-02-19T11:54:23.310Z,12.10
2019-02-19T11:56:51.040Z,12.20
2019-02-19T11:59:18.844Z,12.30
2019-02-19T12:01:46.594Z,12.30
2019-02-19T12:04:14.280Z,12.40
2019-02-19T12:06:42.253Z,12.40
2019-02-19T12:09:10.294Z,12.40
2019-02-19T12:11:38.293Z,12.40
2019-02-19T12:14:07.601Z,12.40
2019-02-19T12:16:35.472Z,12.30
2019-02-19T12:19:07.546Z,12.30
2019-02-19T12:21:35.411Z,12.30
2019-02-19T12:24:03.246Z,12.30
2019-02-19T12:26:34.323Z,12.30
2019-02-19T12:29:02.170Z,12.30
2019-02-19T12:31:29.828Z,12.40
2019-02-19T12:33:57.598Z,12.50
2019-02-19T12:36:32.478Z,12.40
2019-02-19T12:39:01.677Z,12.40
2019-02-19T12:41:29.491Z,12.50
2019-02-19T12:43:57.590Z,12.50
2019-02-19T12:46:25.487Z,12.40
2019-02-19T12:48:54.871Z,12.50
2019-02-19T12:51:26.504Z,12.50
2019-02-19T12:53:52.682Z,12.60
2019-02-19T12:56:20.789Z,12.50
2019-02-19T12:58:48.929Z,12.40
2019-02-19T13:01:19.097Z,12.30
2019-02-19T13:03:47.158Z,12.30
2019-02-19T13:06:16.146Z,12.30
2019-02-19T13:08:46.797Z,12.40
2019-02-19T13:11:16.458Z,12.40
2019-02-19T13:13:44.834Z,12.50
2019-02-19T13:16:13.060Z,12.50
2019-02-19T13:18:41.438Z,12.70
2019-02-19T13:21:09.439Z,12.70
2019-02-19T13:23:37.235Z,12.80
2019-02-19T13:26:05.402Z,12.90
2019-02-19T13:28:33.232Z,13.00
2019-02-19T13:31:00.829Z,13.10
2019-02-19T13:33:28.806Z,13.10
2019-02-19T13:35:56.387Z,13.10
2019-02-19T13:38:23.936Z,13.20
2019-02-19T13:40:51.594Z,13.20
2019-02-19T13:43:19.329Z,13.20
2019-02-19T13:45:47.184Z,13.30
2019-02-19T13:48:14.839Z,13.30
2019-02-19T13:50:42.522Z,13.20
2019-02-19T13:53:14.558Z,13.20
2019-02-19T13:55:45.701Z,13.30
2019-02-19T13:58:13.403Z,13.40
2019-02-19T14:00:42.246Z,13.40
2019-02-19T14:03:09.820Z,13.30
2019-02-19T14:05:37.546Z,13.30
2019-02-19T14:08:13.986Z,13.30
2019-02-19T14:10:36.238Z,13.40
2019-02-19T14:13:04.032Z,13.30
2019-02-19T14:15:43.750Z,13.10
2019-02-19T14:18:12.211Z,12.90
2019-02-19T14:20:57.824Z,12.90
2019-02-19T14:23:43.353Z,12.70
2019-02-19T14:26:33.378Z,12.80
2019-02-19T14:29:26.152Z,12.70
2019-02-19T14:32:13.159Z,12.60
2019-02-19T14:34:59.536Z,12.50
2019-02-19T14:37:43.690Z,12.40
2019-02-19T14:40:49.142Z,12.30
2019-02-19T14:43:33.187Z,12.20
2019-02-19T14:46:23.141Z,12.10
2019-02-19T14:49:18.863Z,12.10
2019-02-19T14:52:08.662Z,11.90
2019-02-19T14:55:07.354Z,11.80
2019-02-19T14:57:44.071Z,11.70
2019-02-19T15:00:31.869Z,11.80
2019-02-19T15:03:31.140Z,11.80
2019-02-19T15:06:30.242Z,11.80
2019-02-19T15:09:08.832Z,11.80
2019-02-19T15:11:56.292Z,11.70
2019-02-19T15:14:43.816Z,11.80
2019-02-19T15:17:33.936Z,11.70
2019-02-19T15:20:18.683Z,11.50
2019-02-19T15:23:05.404Z,11.40
2019-02-19T15:26:10.547Z,11.30
2019-02-19T15:28:52.617Z,11.30
2019-02-19T15:31:48.698Z,11.30
2019-02-19T15:34:37.289Z,11.30
2019-02-19T15:37:33.314Z,11.20
2019-02-19T15:40:19.192Z,11.10
2019-02-19T15:43:09.334Z,11.10
2019-02-19T15:46:08.423Z,11.00
2019-02-19T15:49:14.652Z,10.90
2019-02-19T15:52:18.005Z,10.80
2019-02-19T15:55:22.013Z,11.00
2019-02-19T15:58:09.040Z,10.90
2019-02-19T16:01:06.535Z,10.70
2019-02-19T16:04:00.267Z,10.70
2019-02-19T16:06:55.286Z,10.80
2019-02-19T16:09:42.123Z,10.90
2019-02-19T16:12:32.039Z,11.00
2019-02-19T16:15:15.113Z,11.00
2019-02-19T16:18:05.508Z,10.90
2019-02-19T16:20:55.625Z,10.80
2019-02-19T16:23:44.078Z,10.60
2019-02-19T16:26:31.449Z,10.60
2019-02-19T16:29:26.461Z,10.50
2019-02-19T16:32:22.699Z,10.40
2019-02-19T16:35:17.890Z,10.40
2019-02-19T16:38:03.885Z,10.50
2019-02-19T16:40:39.782Z,10.50
2019-02-19T16:43:33.160Z,10.50
2019-02-19T16:46:23.740Z,10.50
2019-02-19T16:49:11.384Z,10.60
2019-02-19T16:52:11.018Z,10.50
2019-02-19T16:54:50.848Z,10.60
2019-02-19T16:57:32.561Z,10.50
2019-02-19T17:00:26.499Z,10.40
2019-02-19T17:03:10.441Z,10.40
2019-02-19T17:05:59.442Z,10.40
2019-02-19T17:08:56.586Z,10.40
2019-02-19T17:11:45.030Z,10.40
2019-02-19T17:14:36.685Z,10.40
2019-02-19T17:17:13.940Z,10.40
2019-02-19T17:20:26.247Z,10.30
2019-02-19T17:23:02.503Z,10.10
2019-02-19T17:26:00.657Z,10.00
2019-02-19T17:28:51.390Z,10.00
2019-02-19T17:31:33.808Z,10.00
2019-02-19T17:34:10.624Z,9.90
2019-02-19T17:36:52.665Z,9.60
2019-02-19T17:39:57.928Z,9.60
2019-02-19T17:42:39.920Z,9.60
2019-02-19T17:45:25.944Z,9.50
2019-02-19T17:48:28.559Z,9.60
2019-02-19T17:51:21.322Z,9.50
2019-02-19T17:54:27.016Z,9.70
2019-02-19T17:57:17.050Z,9.80
2019-02-19T18:00:06.070Z,9.90
2019-02-19T18:02:52.781Z,9.90
2019-02-19T18:05:52.182Z,9.70
2019-02-19T18:08:32.365Z,9.70
2019-02-19T18:11:18.727Z,9.60
2019-02-19T18:14:06.483Z,9.70
2019-02-19T18:17:01.961Z,9.60
2019-02-19T18:19:30.303Z,9.70
2019-02-19T18:21:58.720Z,9.70
2019-02-19T18:24:27.894Z,9.60
2019-02-19T18:26:56.062Z,9.60
2019-02-19T18:29:25.568Z,9.50
2019-02-19T18:32:01.611Z,9.40
2019-02-19T18:34:31.614Z,9.40
2019-02-19T18:37:37.661Z,9.40
2019-02-19T18:40:05.726Z,9.50
2019-02-19T18:42:38.178Z,9.50
2019-02-19T18:45:14.188Z,9.70
2019-02-19T18:47:46.243Z,9.50
2019-02-19T18:50:14.761Z,9.50
2019-02-19T18:52:42.899Z,9.30
2019-02-19T18:55:12.059Z,9.10
2019-02-19T18:57:40.303Z,9.00
2019-02-19T19:00:13.195Z,8.90
2019-02-19T19:02:49.329Z,8.80
2019-02-19T19:05:32.691Z,8.80
2019-02-19T19:07:55.886Z,8.80
2019-02-19T19:10:44.695Z,8.70
2019-02-19T19:13:17.856Z,8.60
2019-02-19T19:15:53.290Z,8.60
2019-02-19T19:18:27.677Z,8.70
2019-02-19T19:20:56.880Z,8.70
2019-02-19T19:23:59.391Z,8.60
2019-02-19T19:30:06.895Z,8.50
2019-02-19T19:32:36.888Z,8.50
2019-02-19T19:38:08.528Z,8.20
2019-02-19T19:41:02.825Z,8.40
2019-02-19T19:44:01.142Z,8.40
2019-02-19T19:46:31.808Z,8.20
2019-02-19T19:49:01.187Z,8.10
2019-02-19T19:51:29.580Z,8.10
2019-02-19T19:54:02.316Z,8.00
2019-02-19T19:56:34.389Z,8.00
2019-02-19T19:59:10.457Z,7.90
2019-02-19T20:01:48.625Z,7.80
2019-02-19T20:04:17.348Z,8.00
2019-02-19T20:06:56.978Z,8.10
2019-02-19T20:09:29.758Z,8.10
2019-02-19T20:12:28.749Z,8.10
2019-02-19T20:15:03.689Z,8.20
2019-02-19T20:17:46.422Z,8.10
2019-02-19T20:20:20.231Z,8.10
2019-02-19T20:22:50.576Z,8.00
2019-02-19T20:25:19.276Z,8.00
2019-02-19T20:27:49.803Z,8.00
2019-02-19T20:30:22.217Z,7.90
2019-02-19T20:32:51.266Z,7.90
2019-02-19T20:35:41.217Z,7.80
2019-02-19T20:38:06.025Z,7.70
2019-02-19T20:40:36.381Z,7.70
2019-02-19T20:43:11.950Z,7.70
2019-02-19T20:45:42.229Z,7.70
2019-02-19T20:48:10.525Z,7.70
2019-02-19T20:50:42.393Z,7.70
2019-02-19T20:53:16.010Z,7.70
2019-02-19T20:55:57.418Z,7.80
2019-02-19T21:01:14.704Z,7.70
2019-02-19T21:03:44.140Z,7.70
2019-02-19T21:06:21.939Z,7.70
2019-02-19T21:08:52.367Z,7.60
2019-02-19T21:11:35.592Z,7.60
2019-02-19T21:14:20.624Z,7.70
2019-02-19T21:16:52.187Z,7.60
2019-02-19T21:19:26.586Z,7.60
2019-02-19T21:21:56.727Z,7.60
2019-02-19T21:24:34.866Z,7.50
2019-02-19T21:27:08.802Z,7.50
2019-02-19T21:29:47.530Z,7.40
2019-02-19T21:32:23.022Z,7.30
2019-02-19T21:34:55.164Z,7.40
2019-02-19T21:37:50.341Z,7.20
2019-02-19T21:40:44.227Z,7.20
2019-02-19T21:43:14.319Z,7.10
2019-02-19T21:45:47.058Z,7.00
2019-02-19T21:48:21.489Z,6.90
2019-02-19T21:50:50.813Z,6.70
2019-02-19T21:53:30.439Z,6.60
2019-02-19T21:56:04.280Z,6.50
2019-02-19T21:58:44.253Z,6.50
2019-02-19T22:01:12.464Z,6.40
2019-02-19T22:03:41.409Z,6.30
2019-02-19T22:06:09.888Z,6.30
2019-02-19T22:08:38.614Z,6.30
2019-02-19T22:11:10.428Z,6.30
2019-02-19T22:13:38.665Z,6.20
2019-02-19T22:16:07.572Z,6.10
2019-02-19T22:18:36.510Z,6.30
2019-02-19T22:21:19.553Z,6.30
2019-02-19T22:23:50.129Z,6.30
2019-02-19T22:26:18.929Z,6.40
2019-02-19T22:28:47.940Z,6.40
2019-02-19T22:31:16.850Z,6.50
2019-02-19T22:33:49.374Z,6.60
2019-02-19T22:36:22.391Z,6.80
2019-02-19T22:39:03.086Z,7.00
2019-02-19T22:41:35.944Z,7.10
2019-02-19T22:44:13.663Z,7.10
2019-02-19T22:46:52.660Z,7.10
2019-02-19T22:49:20.530Z,7.00
2019-02-19T22:52:12.530Z,7.10
2019-02-19T22:55:05.225Z,7.10
2019-02-19T22:57:38.308Z,7.10
2019-02-19T23:00:13.897Z,7.20
2019-02-19T23:03:07.450Z,7.10
2019-02-19T23:05:44.372Z,7.20
2019-02-19T23:08:15.492Z,7.10
2019-02-19T23:10:44.015Z,7.00
2019-02-19T23:13:19.241Z,7.00
2019-02-19T23:15:49.303Z,7.10
2019-02-19T23:18:18.085Z,7.20
2019-02-19T23:20:47.786Z,7.20
2019-02-19T23:23:21.286Z,7.20
2019-02-19T23:25:54.260Z,7.30
2019-02-19T23:28:23.301Z,7.20
2019-02-19T23:31:01.364Z,7.10
2019-02-19T23:33:40.370Z,7.10
2019-02-19T23:36:22.347Z,7.00
2019-02-19T23:39:04.739Z,7.20
2019-02-19T23:41:41.555Z,7.20
2019-02-19T23:44:09.652Z,7.00
2019-02-19T23:46:41.415Z,7.20
2019-02-19T23:49:12.310Z,7.20
2019-02-19T23:51:45.679Z,7.20
2019-02-19T23:54:14.604Z,7.20
2019-02-19T23:56:46.493Z,7.20
2019-02-19T23:59:34.483Z,7.10
